sensor_id;sensor_type;location;lat;lon;timestamp;P1;durP1;ratioP1;P2;durP2;ratioP2
11531;SDS011;5822;51.000;5.874;2023-05-23T00:01:56;17.67;;;16.75;;
11531;SDS011;5822;51.000;5.874;2023-05-23T00:04:22;19.33;;;18.23;;
11531;SDS011;5822;51.000;5.874;2023-05-23T00:06:51;18.55;;;17.55;;
11531;SDS011;5822;51.000;5.874;2023-05-23T00:09:17;18.38;;;17.38;;
11531;SDS011;5822;51.000;5.874;2023-05-23T00:11:43;18.13;;;17.13;;
11531;SDS011;5822;51.000;5.874;2023-05-23T00:14:13;17.92;;;16.92;;
11531;SDS011;5822;51.000;5.874;2023-05-23T00:16:42;18.25;;;17.25;;
11531;SDS011;5822;51.000;5.874;2023-05-23T00:19:12;18.42;;;17.42;;
11531;SDS011;5822;51.000;5.874;2023-05-23T00:21:45;18.15;;;17.15;;
11531;SDS011;5822;51.000;5.874;2023-05-23T00:24:15;18.33;;;17.33;;
11531;SDS011;5822;51.000;5.874;2023-05-23T00:26:44;19.20;;;18.10;;
11531;SDS011;5822;51.000;5.874;2023-05-23T00:29:10;18.77;;;17.77;;
11531;SDS011;5822;51.000;5.874;2023-05-23T00:31:43;19.00;;;17.90;;
11531;SDS011;5822;51.000;5.874;2023-05-23T00:34:11;18.67;;;17.67;;
11531;SDS011;5822;51.000;5.874;2023-05-23T00:36:37;19.87;;;18.77;;
11531;SDS011;5822;51.000;5.874;2023-05-23T00:39:05;19.90;;;18.77;;
11531;SDS011;5822;51.000;5.874;2023-05-23T00:41:32;18.95;;;17.95;;
11531;SDS011;5822;51.000;5.874;2023-05-23T00:43:58;19.42;;;18.33;;
11531;SDS011;5822;51.000;5.874;2023-05-23T00:46:24;19.52;;;18.42;;
11531;SDS011;5822;51.000;5.874;2023-05-23T00:48:51;19.38;;;18.27;;
11531;SDS011;5822;51.000;5.874;2023-05-23T00:51:17;20.25;;;19.15;;
11531;SDS011;5822;51.000;5.874;2023-05-23T00:53:44;19.80;;;18.70;;
11531;SDS011;5822;51.000;5.874;2023-05-23T00:56:10;20.35;;;19.25;;
11531;SDS011;5822;51.000;5.874;2023-05-23T00:58:36;20.80;;;19.60;;
11531;SDS011;5822;51.000;5.874;2023-05-23T01:01:02;20.13;;;18.92;;
11531;SDS011;5822;51.000;5.874;2023-05-23T01:03:28;20.50;;;19.30;;
11531;SDS011;5822;51.000;5.874;2023-05-23T01:05:54;21.38;;;20.08;;
11531;SDS011;5822;51.000;5.874;2023-05-23T01:08:20;20.70;;;19.50;;
11531;SDS011;5822;51.000;5.874;2023-05-23T01:10:46;20.80;;;19.60;;
11531;SDS011;5822;51.000;5.874;2023-05-23T01:16:21;21.30;;;20.00;;
11531;SDS011;5822;51.000;5.874;2023-05-23T01:18:53;20.38;;;19.23;;
11531;SDS011;5822;51.000;5.874;2023-05-23T01:21:28;21.65;;;20.35;;
11531;SDS011;5822;51.000;5.874;2023-05-23T01:31:56;21.20;;;19.90;;
11531;SDS011;5822;51.000;5.874;2023-05-23T01:34:22;21.50;;;20.20;;
11531;SDS011;5822;51.000;5.874;2023-05-23T01:36:49;20.27;;;19.07;;
11531;SDS011;5822;51.000;5.874;2023-05-23T01:39:18;20.38;;;19.15;;
11531;SDS011;5822;51.000;5.874;2023-05-23T01:41:44;20.75;;;19.55;;
11531;SDS011;5822;51.000;5.874;2023-05-23T01:44:10;19.15;;;18.05;;
11531;SDS011;5822;51.000;5.874;2023-05-23T01:46:35;20.15;;;19.02;;
11531;SDS011;5822;51.000;5.874;2023-05-23T01:49:03;20.33;;;19.13;;
11531;SDS011;5822;51.000;5.874;2023-05-23T01:51:31;18.70;;;17.70;;
11531;SDS011;5822;51.000;5.874;2023-05-23T01:53:58;19.13;;;18.02;;
11531;SDS011;5822;51.000;5.874;2023-05-23T01:56:25;19.02;;;17.92;;
11531;SDS011;5822;51.000;5.874;2023-05-23T01:58:52;18.70;;;17.60;;
11531;SDS011;5822;51.000;5.874;2023-05-23T02:01:18;18.30;;;17.30;;
11531;SDS011;5822;51.000;5.874;2023-05-23T02:03:44;19.40;;;18.30;;
11531;SDS011;5822;51.000;5.874;2023-05-23T02:06:10;20.38;;;19.17;;
11531;SDS011;5822;51.000;5.874;2023-05-23T02:08:36;20.38;;;19.17;;
11531;SDS011;5822;51.000;5.874;2023-05-23T02:11:02;19.25;;;18.15;;
11531;SDS011;5822;51.000;5.874;2023-05-23T02:13:27;19.10;;;18.00;;
11531;SDS011;5822;51.000;5.874;2023-05-23T02:15:53;21.10;;;19.80;;
11531;SDS011;5822;51.000;5.874;2023-05-23T02:18:19;20.85;;;19.65;;
11531;SDS011;5822;51.000;5.874;2023-05-23T02:20:45;19.98;;;18.88;;
11531;SDS011;5822;51.000;5.874;2023-05-23T02:23:10;19.52;;;18.42;;
11531;SDS011;5822;51.000;5.874;2023-05-23T02:25:36;19.77;;;18.67;;
11531;SDS011;5822;51.000;5.874;2023-05-23T02:28:02;20.03;;;18.93;;
11531;SDS011;5822;51.000;5.874;2023-05-23T02:30:28;18.67;;;17.67;;
11531;SDS011;5822;51.000;5.874;2023-05-23T02:32:53;19.13;;;18.02;;
11531;SDS011;5822;51.000;5.874;2023-05-23T02:35:19;18.80;;;17.80;;
11531;SDS011;5822;51.000;5.874;2023-05-23T02:37:45;18.67;;;17.67;;
11531;SDS011;5822;51.000;5.874;2023-05-23T02:40:11;18.42;;;17.42;;
11531;SDS011;5822;51.000;5.874;2023-05-23T02:42:37;18.10;;;17.10;;
11531;SDS011;5822;51.000;5.874;2023-05-23T02:45:02;18.03;;;17.03;;
11531;SDS011;5822;51.000;5.874;2023-05-23T02:47:28;17.80;;;16.83;;
11531;SDS011;5822;51.000;5.874;2023-05-23T02:49:54;18.33;;;17.33;;
11531;SDS011;5822;51.000;5.874;2023-05-23T02:52:19;18.58;;;17.58;;
11531;SDS011;5822;51.000;5.874;2023-05-23T02:54:45;17.85;;;16.85;;
11531;SDS011;5822;51.000;5.874;2023-05-23T02:57:11;18.10;;;17.00;;
11531;SDS011;5822;51.000;5.874;2023-05-23T02:59:37;17.87;;;16.87;;
11531;SDS011;5822;51.000;5.874;2023-05-23T03:02:02;19.20;;;18.10;;
11531;SDS011;5822;51.000;5.874;2023-05-23T03:04:28;18.30;;;17.30;;
11531;SDS011;5822;51.000;5.874;2023-05-23T03:06:55;17.67;;;16.67;;
11531;SDS011;5822;51.000;5.874;2023-05-23T03:09:23;17.27;;;16.38;;
11531;SDS011;5822;51.000;5.874;2023-05-23T03:11:49;18.38;;;17.38;;
11531;SDS011;5822;51.000;5.874;2023-05-23T03:14:15;17.58;;;16.58;;
11531;SDS011;5822;51.000;5.874;2023-05-23T03:16:41;17.90;;;16.90;;
11531;SDS011;5822;51.000;5.874;2023-05-23T03:19:07;17.93;;;16.93;;
11531;SDS011;5822;51.000;5.874;2023-05-23T03:21:32;17.87;;;16.87;;
11531;SDS011;5822;51.000;5.874;2023-05-23T03:23:59;17.92;;;16.92;;
11531;SDS011;5822;51.000;5.874;2023-05-23T03:26:25;17.50;;;16.55;;
11531;SDS011;5822;51.000;5.874;2023-05-23T03:28:50;17.38;;;16.48;;
11531;SDS011;5822;51.000;5.874;2023-05-23T03:31:16;18.47;;;17.40;;
11531;SDS011;5822;51.000;5.874;2023-05-23T03:33:42;18.33;;;17.33;;
11531;SDS011;5822;51.000;5.874;2023-05-23T03:36:07;17.45;;;16.45;;
11531;SDS011;5822;51.000;5.874;2023-05-23T03:38:33;17.47;;;16.47;;
11531;SDS011;5822;51.000;5.874;2023-05-23T03:40:59;17.77;;;16.80;;
11531;SDS011;5822;51.000;5.874;2023-05-23T03:43:24;17.27;;;16.38;;
11531;SDS011;5822;51.000;5.874;2023-05-23T03:45:50;17.20;;;16.30;;
11531;SDS011;5822;51.000;5.874;2023-05-23T03:48:15;17.57;;;16.57;;
11531;SDS011;5822;51.000;5.874;2023-05-23T03:50:41;17.43;;;16.43;;
11531;SDS011;5822;51.000;5.874;2023-05-23T03:53:07;17.73;;;16.73;;
11531;SDS011;5822;51.000;5.874;2023-05-23T03:55:33;17.77;;;16.77;;
11531;SDS011;5822;51.000;5.874;2023-05-23T03:57:58;18.67;;;17.57;;
11531;SDS011;5822;51.000;5.874;2023-05-23T04:00:24;18.43;;;17.33;;
11531;SDS011;5822;51.000;5.874;2023-05-23T04:02:51;17.92;;;16.92;;
11531;SDS011;5822;51.000;5.874;2023-05-23T04:05:16;17.75;;;16.75;;
11531;SDS011;5822;51.000;5.874;2023-05-23T04:07:42;18.00;;;17.00;;
11531;SDS011;5822;51.000;5.874;2023-05-23T04:10:09;17.90;;;16.90;;
11531;SDS011;5822;51.000;5.874;2023-05-23T04:12:35;18.02;;;17.02;;
11531;SDS011;5822;51.000;5.874;2023-05-23T04:15:01;17.70;;;16.70;;
11531;SDS011;5822;51.000;5.874;2023-05-23T04:17:27;18.15;;;17.05;;
11531;SDS011;5822;51.000;5.874;2023-05-23T04:19:55;18.65;;;17.55;;
11531;SDS011;5822;51.000;5.874;2023-05-23T04:22:21;18.63;;;17.52;;
11531;SDS011;5822;51.000;5.874;2023-05-23T04:24:47;18.50;;;17.40;;
11531;SDS011;5822;51.000;5.874;2023-05-23T04:27:12;18.10;;;17.10;;
11531;SDS011;5822;51.000;5.874;2023-05-23T04:29:38;18.10;;;17.10;;
11531;SDS011;5822;51.000;5.874;2023-05-23T04:32:04;18.42;;;17.42;;
11531;SDS011;5822;51.000;5.874;2023-05-23T04:34:31;18.80;;;17.70;;
11531;SDS011;5822;51.000;5.874;2023-05-23T04:37:00;18.20;;;17.20;;
11531;SDS011;5822;51.000;5.874;2023-05-23T04:39:28;19.42;;;18.33;;
11531;SDS011;5822;51.000;5.874;2023-05-23T04:41:54;19.30;;;18.10;;
11531;SDS011;5822;51.000;5.874;2023-05-23T04:44:23;18.70;;;17.60;;
11531;SDS011;5822;51.000;5.874;2023-05-23T04:46:50;19.15;;;18.05;;
11531;SDS011;5822;51.000;5.874;2023-05-23T04:49:16;18.45;;;17.45;;
11531;SDS011;5822;51.000;5.874;2023-05-23T04:51:42;18.33;;;17.33;;
11531;SDS011;5822;51.000;5.874;2023-05-23T04:54:08;18.10;;;17.10;;
11531;SDS011;5822;51.000;5.874;2023-05-23T04:56:33;18.93;;;17.83;;
11531;SDS011;5822;51.000;5.874;2023-05-23T04:58:59;19.23;;;18.13;;
11531;SDS011;5822;51.000;5.874;2023-05-23T05:01:25;18.50;;;17.50;;
11531;SDS011;5822;51.000;5.874;2023-05-23T05:03:51;18.20;;;17.20;;
11531;SDS011;5822;51.000;5.874;2023-05-23T05:06:17;18.77;;;17.67;;
11531;SDS011;5822;51.000;5.874;2023-05-23T05:08:43;18.57;;;17.47;;
11531;SDS011;5822;51.000;5.874;2023-05-23T05:11:09;17.83;;;16.83;;
11531;SDS011;5822;51.000;5.874;2023-05-23T05:13:34;17.98;;;16.98;;
11531;SDS011;5822;51.000;5.874;2023-05-23T05:16:00;18.85;;;17.75;;
11531;SDS011;5822;51.000;5.874;2023-05-23T05:18:27;18.50;;;17.40;;
11531;SDS011;5822;51.000;5.874;2023-05-23T05:20:53;17.08;;;16.17;;
11531;SDS011;5822;51.000;5.874;2023-05-23T05:23:18;17.30;;;16.30;;
11531;SDS011;5822;51.000;5.874;2023-05-23T05:25:44;16.52;;;15.63;;
11531;SDS011;5822;51.000;5.874;2023-05-23T05:28:11;17.15;;;16.15;;
11531;SDS011;5822;51.000;5.874;2023-05-23T05:30:37;16.97;;;16.07;;
11531;SDS011;5822;51.000;5.874;2023-05-23T05:33:03;16.48;;;15.57;;
11531;SDS011;5822;51.000;5.874;2023-05-23T05:35:30;16.40;;;15.50;;
11531;SDS011;5822;51.000;5.874;2023-05-23T05:37:56;16.20;;;15.30;;
11531;SDS011;5822;51.000;5.874;2023-05-23T05:40:22;16.13;;;15.30;;
11531;SDS011;5822;51.000;5.874;2023-05-23T05:42:48;16.70;;;15.80;;
11531;SDS011;5822;51.000;5.874;2023-05-23T05:45:13;16.53;;;15.63;;
11531;SDS011;5822;51.000;5.874;2023-05-23T05:47:39;16.65;;;15.82;;
11531;SDS011;5822;51.000;5.874;2023-05-23T05:50:05;16.40;;;15.52;;
11531;SDS011;5822;51.000;5.874;2023-05-23T05:52:35;15.93;;;15.13;;
11531;SDS011;5822;51.000;5.874;2023-05-23T05:55:07;16.30;;;15.40;;
11531;SDS011;5822;51.000;5.874;2023-05-23T05:57:39;16.45;;;15.63;;
11531;SDS011;5822;51.000;5.874;2023-05-23T06:00:06;16.40;;;15.50;;
11531;SDS011;5822;51.000;5.874;2023-05-23T06:02:37;16.45;;;15.55;;
11531;SDS011;5822;51.000;5.874;2023-05-23T06:05:03;16.52;;;15.63;;
11531;SDS011;5822;51.000;5.874;2023-05-23T06:07:32;16.20;;;15.40;;
11531;SDS011;5822;51.000;5.874;2023-05-23T06:09:58;16.73;;;15.82;;
11531;SDS011;5822;51.000;5.874;2023-05-23T06:12:23;16.30;;;15.50;;
11531;SDS011;5822;51.000;5.874;2023-05-23T06:14:49;16.50;;;15.60;;
11531;SDS011;5822;51.000;5.874;2023-05-23T06:17:15;16.50;;;15.60;;
11531;SDS011;5822;51.000;5.874;2023-05-23T06:19:40;16.17;;;15.37;;
11531;SDS011;5822;51.000;5.874;2023-05-23T06:22:06;16.27;;;15.38;;
11531;SDS011;5822;51.000;5.874;2023-05-23T06:24:31;16.50;;;15.60;;
11531;SDS011;5822;51.000;5.874;2023-05-23T06:26:57;16.43;;;15.53;;
11531;SDS011;5822;51.000;5.874;2023-05-23T06:29:23;16.55;;;15.65;;
11531;SDS011;5822;51.000;5.874;2023-05-23T06:31:49;16.10;;;15.30;;
11531;SDS011;5822;51.000;5.874;2023-05-23T06:34:15;16.30;;;15.50;;
11531;SDS011;5822;51.000;5.874;2023-05-23T06:36:41;16.75;;;15.85;;
11531;SDS011;5822;51.000;5.874;2023-05-23T06:39:07;16.60;;;15.70;;
11531;SDS011;5822;51.000;5.874;2023-05-23T06:41:36;16.60;;;15.70;;
11531;SDS011;5822;51.000;5.874;2023-05-23T06:44:02;15.95;;;15.15;;
11531;SDS011;5822;51.000;5.874;2023-05-23T06:46:28;15.75;;;14.95;;
11531;SDS011;5822;51.000;5.874;2023-05-23T06:48:54;17.60;;;16.60;;
11531;SDS011;5822;51.000;5.874;2023-05-23T06:51:19;16.77;;;15.87;;
11531;SDS011;5822;51.000;5.874;2023-05-23T06:53:45;17.30;;;16.30;;
11531;SDS011;5822;51.000;5.874;2023-05-23T06:56:10;17.10;;;16.10;;
11531;SDS011;5822;51.000;5.874;2023-05-23T06:58:36;16.80;;;15.90;;
11531;SDS011;5822;51.000;5.874;2023-05-23T07:01:02;17.30;;;16.30;;
11531;SDS011;5822;51.000;5.874;2023-05-23T07:03:27;17.20;;;16.20;;
11531;SDS011;5822;51.000;5.874;2023-05-23T07:05:53;17.10;;;16.10;;
11531;SDS011;5822;51.000;5.874;2023-05-23T07:08:19;17.13;;;16.20;;
11531;SDS011;5822;51.000;5.874;2023-05-23T07:10:44;16.73;;;15.82;;
11531;SDS011;5822;51.000;5.874;2023-05-23T07:13:10;16.77;;;15.88;;
11531;SDS011;5822;51.000;5.874;2023-05-23T07:15:35;17.23;;;16.33;;
11531;SDS011;5822;51.000;5.874;2023-05-23T07:18:01;17.50;;;16.50;;
11531;SDS011;5822;51.000;5.874;2023-05-23T07:20:27;17.50;;;16.52;;
11531;SDS011;5822;51.000;5.874;2023-05-23T07:22:52;18.60;;;17.40;;
11531;SDS011;5822;51.000;5.874;2023-05-23T07:25:18;18.67;;;17.50;;
11531;SDS011;5822;51.000;5.874;2023-05-23T07:27:46;18.70;;;17.60;;
11531;SDS011;5822;51.000;5.874;2023-05-23T07:30:12;17.83;;;16.73;;
11531;SDS011;5822;51.000;5.874;2023-05-23T07:32:38;18.55;;;17.45;;
11531;SDS011;5822;51.000;5.874;2023-05-23T07:35:04;19.13;;;17.92;;
11531;SDS011;5822;51.000;5.874;2023-05-23T07:37:30;21.20;;;19.83;;
11531;SDS011;5822;51.000;5.874;2023-05-23T07:39:56;21.10;;;19.80;;
11531;SDS011;5822;51.000;5.874;2023-05-23T07:42:21;20.63;;;19.33;;
11531;SDS011;5822;51.000;5.874;2023-05-23T07:44:47;20.20;;;18.90;;
11531;SDS011;5822;51.000;5.874;2023-05-23T07:47:12;19.23;;;18.10;;
11531;SDS011;5822;51.000;5.874;2023-05-23T07:49:38;19.43;;;18.23;;
11531;SDS011;5822;51.000;5.874;2023-05-23T07:52:04;19.77;;;18.53;;
11531;SDS011;5822;51.000;5.874;2023-05-23T07:54:30;19.40;;;18.13;;
11531;SDS011;5822;51.000;5.874;2023-05-23T07:56:56;19.23;;;18.02;;
11531;SDS011;5822;51.000;5.874;2023-05-23T07:59:22;18.55;;;17.40;;
11531;SDS011;5822;51.000;5.874;2023-05-23T08:01:48;18.63;;;17.53;;
11531;SDS011;5822;51.000;5.874;2023-05-23T08:04:16;19.10;;;18.00;;
11531;SDS011;5822;51.000;5.874;2023-05-23T08:06:42;19.83;;;18.52;;
11531;SDS011;5822;51.000;5.874;2023-05-23T08:09:11;19.90;;;18.50;;
11531;SDS011;5822;51.000;5.874;2023-05-23T08:11:37;19.30;;;18.02;;
11531;SDS011;5822;51.000;5.874;2023-05-23T08:14:02;19.92;;;18.63;;
11531;SDS011;5822;51.000;5.874;2023-05-23T08:16:28;19.60;;;18.30;;
11531;SDS011;5822;51.000;5.874;2023-05-23T08:18:54;18.70;;;17.60;;
11531;SDS011;5822;51.000;5.874;2023-05-23T08:21:19;18.80;;;17.50;;
11531;SDS011;5822;51.000;5.874;2023-05-23T08:23:45;17.77;;;16.77;;
11531;SDS011;5822;51.000;5.874;2023-05-23T08:26:11;17.23;;;16.25;;
11531;SDS011;5822;51.000;5.874;2023-05-23T08:28:36;17.40;;;16.40;;
11531;SDS011;5822;51.000;5.874;2023-05-23T08:31:02;16.90;;;15.90;;
11531;SDS011;5822;51.000;5.874;2023-05-23T08:33:27;17.88;;;16.77;;
11531;SDS011;5822;51.000;5.874;2023-05-23T08:35:53;17.27;;;16.27;;
11531;SDS011;5822;51.000;5.874;2023-05-23T08:38:19;16.33;;;15.43;;
11531;SDS011;5822;51.000;5.874;2023-05-23T08:40:48;16.80;;;15.90;;
11531;SDS011;5822;51.000;5.874;2023-05-23T08:43:15;16.83;;;15.90;;
11531;SDS011;5822;51.000;5.874;2023-05-23T08:45:41;17.20;;;16.20;;
11531;SDS011;5822;51.000;5.874;2023-05-23T08:48:08;16.98;;;16.08;;
11531;SDS011;5822;51.000;5.874;2023-05-23T08:50:37;16.83;;;15.77;;
11531;SDS011;5822;51.000;5.874;2023-05-23T08:53:04;17.10;;;16.05;;
11531;SDS011;5822;51.000;5.874;2023-05-23T08:55:32;17.20;;;16.20;;
11531;SDS011;5822;51.000;5.874;2023-05-23T08:57:59;16.80;;;15.90;;
11531;SDS011;5822;51.000;5.874;2023-05-23T09:00:25;17.52;;;16.50;;
11531;SDS011;5822;51.000;5.874;2023-05-23T09:02:51;17.20;;;16.20;;
11531;SDS011;5822;51.000;5.874;2023-05-23T09:05:18;17.85;;;16.80;;
11531;SDS011;5822;51.000;5.874;2023-05-23T09:07:44;18.08;;;16.98;;
11531;SDS011;5822;51.000;5.874;2023-05-23T09:10:15;17.48;;;16.48;;
11531;SDS011;5822;51.000;5.874;2023-05-23T09:12:42;17.25;;;16.30;;
11531;SDS011;5822;51.000;5.874;2023-05-23T09:15:08;17.83;;;16.83;;
11531;SDS011;5822;51.000;5.874;2023-05-23T09:17:34;17.80;;;16.80;;
11531;SDS011;5822;51.000;5.874;2023-05-23T09:20:02;17.17;;;16.25;;
11531;SDS011;5822;51.000;5.874;2023-05-23T09:22:30;16.88;;;15.98;;
11531;SDS011;5822;51.000;5.874;2023-05-23T09:24:56;17.00;;;16.10;;
11531;SDS011;5822;51.000;5.874;2023-05-23T09:27:22;18.45;;;17.33;;
11531;SDS011;5822;51.000;5.874;2023-05-23T09:29:48;17.75;;;16.75;;
11531;SDS011;5822;51.000;5.874;2023-05-23T09:32:16;16.85;;;15.95;;
11531;SDS011;5822;51.000;5.874;2023-05-23T09:37:21;17.52;;;16.52;;
11531;SDS011;5822;51.000;5.874;2023-05-23T09:39:59;17.70;;;16.70;;
11531;SDS011;5822;51.000;5.874;2023-05-23T09:42:30;17.58;;;16.58;;
11531;SDS011;5822;51.000;5.874;2023-05-23T09:44:57;17.10;;;16.10;;
11531;SDS011;5822;51.000;5.874;2023-05-23T09:47:23;17.88;;;16.88;;
11531;SDS011;5822;51.000;5.874;2023-05-23T09:49:48;17.63;;;16.63;;
11531;SDS011;5822;51.000;5.874;2023-05-23T09:52:15;17.13;;;16.23;;
11531;SDS011;5822;51.000;5.874;2023-05-23T09:54:41;17.20;;;16.30;;
11531;SDS011;5822;51.000;5.874;2023-05-23T09:57:09;17.17;;;16.27;;
11531;SDS011;5822;51.000;5.874;2023-05-23T09:59:37;17.80;;;16.80;;
11531;SDS011;5822;51.000;5.874;2023-05-23T10:02:05;17.83;;;16.83;;
11531;SDS011;5822;51.000;5.874;2023-05-23T10:04:34;18.35;;;17.25;;
11531;SDS011;5822;51.000;5.874;2023-05-23T10:07:21;18.33;;;17.23;;
11531;SDS011;5822;51.000;5.874;2023-05-23T10:09:51;18.50;;;17.40;;
11531;SDS011;5822;51.000;5.874;2023-05-23T10:15:02;18.02;;;17.02;;
11531;SDS011;5822;51.000;5.874;2023-05-23T10:20:17;18.38;;;17.30;;
11531;SDS011;5822;51.000;5.874;2023-05-23T10:22:48;18.30;;;17.20;;
11531;SDS011;5822;51.000;5.874;2023-05-23T10:25:15;18.00;;;17.00;;
11531;SDS011;5822;51.000;5.874;2023-05-23T10:27:41;18.33;;;17.23;;
11531;SDS011;5822;51.000;5.874;2023-05-23T10:30:07;18.08;;;17.05;;
11531;SDS011;5822;51.000;5.874;2023-05-23T10:32:34;17.67;;;16.67;;
11531;SDS011;5822;51.000;5.874;2023-05-23T10:35:09;17.63;;;16.63;;
11531;SDS011;5822;51.000;5.874;2023-05-23T10:43:42;17.30;;;16.30;;
11531;SDS011;5822;51.000;5.874;2023-05-23T10:46:13;17.70;;;16.70;;
11531;SDS011;5822;51.000;5.874;2023-05-23T10:48:40;17.20;;;16.30;;
11531;SDS011;5822;51.000;5.874;2023-05-23T10:51:08;17.88;;;16.88;;
11531;SDS011;5822;51.000;5.874;2023-05-23T10:53:42;17.05;;;16.10;;
11531;SDS011;5822;51.000;5.874;2023-05-23T10:56:10;16.73;;;15.82;;
11531;SDS011;5822;51.000;5.874;2023-05-23T10:58:44;16.83;;;15.93;;
11531;SDS011;5822;51.000;5.874;2023-05-23T11:01:14;17.20;;;16.30;;
11531;SDS011;5822;51.000;5.874;2023-05-23T11:06:28;17.38;;;16.38;;
11531;SDS011;5822;51.000;5.874;2023-05-23T11:09:04;17.38;;;16.38;;
11531;SDS011;5822;51.000;5.874;2023-05-23T11:19:39;16.90;;;16.00;;
11531;SDS011;5822;51.000;5.874;2023-05-23T11:22:30;16.83;;;15.93;;
11531;SDS011;5822;51.000;5.874;2023-05-23T11:24:57;16.85;;;15.85;;
11531;SDS011;5822;51.000;5.874;2023-05-23T11:27:30;16.92;;;16.02;;
11531;SDS011;5822;51.000;5.874;2023-05-23T11:30:03;17.60;;;16.50;;
11531;SDS011;5822;51.000;5.874;2023-05-23T11:32:40;18.05;;;16.95;;
11531;SDS011;5822;51.000;5.874;2023-05-23T11:35:07;17.08;;;16.08;;
11531;SDS011;5822;51.000;5.874;2023-05-23T11:37:34;16.48;;;15.57;;
11531;SDS011;5822;51.000;5.874;2023-05-23T11:42:54;16.92;;;15.93;;
11531;SDS011;5822;51.000;5.874;2023-05-23T11:45:23;17.10;;;16.00;;
11531;SDS011;5822;51.000;5.874;2023-05-23T11:47:49;17.10;;;16.10;;
11531;SDS011;5822;51.000;5.874;2023-05-23T11:50:15;17.52;;;16.48;;
11531;SDS011;5822;51.000;5.874;2023-05-23T11:52:41;17.38;;;16.38;;
11531;SDS011;5822;51.000;5.874;2023-05-23T11:55:07;17.30;;;16.30;;
11531;SDS011;5822;51.000;5.874;2023-05-23T11:57:40;17.30;;;16.30;;
11531;SDS011;5822;51.000;5.874;2023-05-23T12:00:06;17.25;;;16.25;;
11531;SDS011;5822;51.000;5.874;2023-05-23T12:02:37;17.85;;;16.77;;
11531;SDS011;5822;51.000;5.874;2023-05-23T12:05:10;17.00;;;16.00;;
11531;SDS011;5822;51.000;5.874;2023-05-23T12:10:11;18.00;;;16.90;;
11531;SDS011;5822;51.000;5.874;2023-05-23T12:12:39;18.00;;;16.90;;
11531;SDS011;5822;51.000;5.874;2023-05-23T12:15:06;18.08;;;16.98;;
11531;SDS011;5822;51.000;5.874;2023-05-23T12:17:34;17.73;;;16.63;;
11531;SDS011;5822;51.000;5.874;2023-05-23T12:20:02;17.10;;;16.10;;
11531;SDS011;5822;51.000;5.874;2023-05-23T12:22:31;17.10;;;16.10;;
11531;SDS011;5822;51.000;5.874;2023-05-23T12:24:57;17.38;;;16.38;;
11531;SDS011;5822;51.000;5.874;2023-05-23T12:27:26;17.02;;;16.02;;
11531;SDS011;5822;51.000;5.874;2023-05-23T12:30:03;17.10;;;16.10;;
11531;SDS011;5822;51.000;5.874;2023-05-23T12:32:33;17.60;;;16.50;;
11531;SDS011;5822;51.000;5.874;2023-05-23T12:35:10;17.45;;;16.45;;
11531;SDS011;5822;51.000;5.874;2023-05-23T12:40:14;17.88;;;16.77;;
11531;SDS011;5822;51.000;5.874;2023-05-23T12:45:34;17.13;;;16.13;;
11531;SDS011;5822;51.000;5.874;2023-05-23T12:48:01;17.35;;;16.35;;
11531;SDS011;5822;51.000;5.874;2023-05-23T12:50:27;17.70;;;16.70;;
11531;SDS011;5822;51.000;5.874;2023-05-23T12:52:53;17.38;;;16.38;;
11531;SDS011;5822;51.000;5.874;2023-05-23T12:55:20;17.83;;;16.73;;
11531;SDS011;5822;51.000;5.874;2023-05-23T12:57:46;17.48;;;16.48;;
11531;SDS011;5822;51.000;5.874;2023-05-23T13:00:12;17.63;;;16.63;;
11531;SDS011;5822;51.000;5.874;2023-05-23T13:02:38;18.35;;;17.20;;
11531;SDS011;5822;51.000;5.874;2023-05-23T13:05:04;17.70;;;16.70;;
11531;SDS011;5822;51.000;5.874;2023-05-23T13:07:31;18.42;;;17.30;;
11531;SDS011;5822;51.000;5.874;2023-05-23T13:09:56;18.48;;;17.38;;
11531;SDS011;5822;51.000;5.874;2023-05-23T13:12:22;18.38;;;17.27;;
11531;SDS011;5822;51.000;5.874;2023-05-23T13:14:48;18.07;;;16.97;;
11531;SDS011;5822;51.000;5.874;2023-05-23T13:17:15;17.60;;;16.60;;
11531;SDS011;5822;51.000;5.874;2023-05-23T13:19:41;18.00;;;16.90;;
11531;SDS011;5822;51.000;5.874;2023-05-23T13:22:07;18.50;;;17.40;;
11531;SDS011;5822;51.000;5.874;2023-05-23T13:24:36;19.00;;;17.70;;
11531;SDS011;5822;51.000;5.874;2023-05-23T13:27:05;18.58;;;17.48;;
11531;SDS011;5822;51.000;5.874;2023-05-23T13:29:31;17.80;;;16.80;;
11531;SDS011;5822;51.000;5.874;2023-05-23T13:31:58;18.42;;;17.33;;
11531;SDS011;5822;51.000;5.874;2023-05-23T13:34:24;17.50;;;16.50;;
11531;SDS011;5822;51.000;5.874;2023-05-23T13:36:51;17.80;;;16.80;;
11531;SDS011;5822;51.000;5.874;2023-05-23T13:39:17;17.95;;;16.95;;
11531;SDS011;5822;51.000;5.874;2023-05-23T13:41:45;17.90;;;16.90;;
11531;SDS011;5822;51.000;5.874;2023-05-23T13:44:11;18.73;;;17.57;;
11531;SDS011;5822;51.000;5.874;2023-05-23T13:46:37;18.53;;;17.43;;
11531;SDS011;5822;51.000;5.874;2023-05-23T13:49:03;19.30;;;18.10;;
11531;SDS011;5822;51.000;5.874;2023-05-23T13:51:28;18.33;;;17.23;;
11531;SDS011;5822;51.000;5.874;2023-05-23T13:53:54;18.20;;;17.10;;
11531;SDS011;5822;51.000;5.874;2023-05-23T13:56:20;18.30;;;17.20;;
11531;SDS011;5822;51.000;5.874;2023-05-23T13:58:48;18.17;;;17.08;;
11531;SDS011;5822;51.000;5.874;2023-05-23T14:01:14;18.52;;;17.45;;
11531;SDS011;5822;51.000;5.874;2023-05-23T14:03:39;19.00;;;17.80;;
11531;SDS011;5822;51.000;5.874;2023-05-23T14:06:05;19.60;;;18.40;;
11531;SDS011;5822;51.000;5.874;2023-05-23T14:08:31;20.27;;;18.97;;
11531;SDS011;5822;51.000;5.874;2023-05-23T14:10:57;19.23;;;18.03;;
11531;SDS011;5822;51.000;5.874;2023-05-23T14:13:23;19.58;;;18.38;;
11531;SDS011;5822;51.000;5.874;2023-05-23T14:15:49;19.40;;;18.20;;
11531;SDS011;5822;51.000;5.874;2023-05-23T14:18:15;19.40;;;18.20;;
11531;SDS011;5822;51.000;5.874;2023-05-23T14:20:41;19.20;;;18.00;;
11531;SDS011;5822;51.000;5.874;2023-05-23T14:23:07;19.60;;;18.40;;
11531;SDS011;5822;51.000;5.874;2023-05-23T14:25:34;19.15;;;17.95;;
11531;SDS011;5822;51.000;5.874;2023-05-23T14:28:00;18.95;;;17.80;;
11531;SDS011;5822;51.000;5.874;2023-05-23T14:30:25;19.13;;;18.03;;
11531;SDS011;5822;51.000;5.874;2023-05-23T14:32:51;18.70;;;17.60;;
11531;SDS011;5822;51.000;5.874;2023-05-23T14:35:18;18.65;;;17.55;;
11531;SDS011;5822;51.000;5.874;2023-05-23T14:37:46;19.30;;;18.10;;
11531;SDS011;5822;51.000;5.874;2023-05-23T14:40:12;18.80;;;17.70;;
11531;SDS011;5822;51.000;5.874;2023-05-23T14:42:38;18.40;;;17.40;;
11531;SDS011;5822;51.000;5.874;2023-05-23T14:45:04;18.43;;;17.33;;
11531;SDS011;5822;51.000;5.874;2023-05-23T14:47:30;19.10;;;17.90;;
11531;SDS011;5822;51.000;5.874;2023-05-23T14:49:56;19.40;;;18.20;;
11531;SDS011;5822;51.000;5.874;2023-05-23T14:52:22;18.80;;;17.70;;
11531;SDS011;5822;51.000;5.874;2023-05-23T14:54:48;18.43;;;17.33;;
11531;SDS011;5822;51.000;5.874;2023-05-23T14:57:13;19.48;;;18.27;;
11531;SDS011;5822;51.000;5.874;2023-05-23T14:59:39;19.70;;;18.47;;
11531;SDS011;5822;51.000;5.874;2023-05-23T15:02:05;19.50;;;18.30;;
11531;SDS011;5822;51.000;5.874;2023-05-23T15:04:34;19.33;;;18.13;;
11531;SDS011;5822;51.000;5.874;2023-05-23T15:07:01;19.00;;;17.90;;
11531;SDS011;5822;51.000;5.874;2023-05-23T15:09:27;19.30;;;18.03;;
11531;SDS011;5822;51.000;5.874;2023-05-23T15:11:53;19.10;;;17.90;;
11531;SDS011;5822;51.000;5.874;2023-05-23T15:14:19;19.45;;;18.17;;
11531;SDS011;5822;51.000;5.874;2023-05-23T15:16:46;19.48;;;18.27;;
11531;SDS011;5822;51.000;5.874;2023-05-23T15:19:14;18.48;;;17.38;;